シャルル・ド・ゴール国際空港(パリ)の過去48時間の天気

シャルル・ド・ゴール国際空港(パリ) (Paris-Aeroport Charles De Gaulle)

現在時刻: 9/25 22:05 CEST (9/25 20:05 UTC) 以下の時間は現地時間です。

過去48時間のMETAR気象情報
時間 風向 風速(m/s) 視程 気温(℃) 湿度(%) 気圧(hPa) 天気現象
25 21:30 北北西 4 10km以上 13 77 1016
LFPG 251930Z 33007KT 9999 FEW035 BKN090 13/09 Q1016 NOSIG